createdAt,value
2022-11-30T00:02:01.775Z,99.01
2022-11-30T00:04:29.706Z,98.11
2022-11-30T00:06:57.547Z,97.79
2022-11-30T00:09:26.854Z,98.41
2022-11-30T00:11:54.695Z,98.60
2022-11-30T00:14:22.535Z,97.57
2022-11-30T00:16:50.397Z,98.04
2022-11-30T00:19:18.243Z,97.71
2022-11-30T00:21:46.064Z,98.69
2022-11-30T00:24:13.944Z,100.00
2022-11-30T00:26:43.209Z,99.30
2022-11-30T00:29:11.724Z,99.30
2022-11-30T00:31:39.581Z,98.30
2022-11-30T00:34:07.486Z,98.60
2022-11-30T00:36:35.255Z,98.69
2022-11-30T00:39:03.088Z,99.66
2022-11-30T00:41:30.934Z,100.00
2022-11-30T00:44:00.179Z,99.19
2022-11-30T00:46:28.323Z,99.61
2022-11-30T00:48:56.163Z,99.06
2022-11-30T00:51:23.990Z,99.64
2022-11-30T00:53:51.794Z,99.69
2022-11-30T00:56:19.784Z,98.48
2022-11-30T00:58:47.652Z,98.83
2022-11-30T01:01:17.002Z,100.00
2022-11-30T01:03:44.903Z,99.88
2022-11-30T01:06:12.772Z,98.88
2022-11-30T01:08:40.608Z,98.57
2022-11-30T01:11:13.268Z,98.95
2022-11-30T01:13:41.098Z,99.55
2022-11-30T01:16:11.621Z,99.46
2022-11-30T01:18:40.975Z,100.00
2022-11-30T01:21:10.153Z,99.09
2022-11-30T01:23:38.211Z,98.89
2022-11-30T01:26:06.504Z,98.55
2022-11-30T01:28:34.457Z,98.77
2022-11-30T01:31:04.876Z,99.06
2022-11-30T01:33:32.814Z,99.27
2022-11-30T01:36:04.499Z,99.18
2022-11-30T01:38:33.835Z,97.64
2022-11-30T01:41:01.638Z,98.86
2022-11-30T01:43:40.055Z,98.98
2022-11-30T01:46:29.251Z,98.04
2022-11-30T01:49:06.010Z,98.73
2022-11-30T01:51:39.408Z,98.59
2022-11-30T01:54:09.957Z,98.20
2022-11-30T01:56:39.526Z,98.49
2022-11-30T01:59:07.480Z,98.94
2022-11-30T02:01:35.458Z,98.85
2022-11-30T02:04:07.547Z,98.89
2022-11-30T02:06:37.054Z,97.69
2022-11-30T02:09:05.056Z,98.47
2022-11-30T02:11:33.222Z,97.92
2022-11-30T02:14:16.895Z,97.97
2022-11-30T02:16:54.782Z,98.00
2022-11-30T02:19:55.055Z,98.65
2022-11-30T02:22:38.318Z,98.44
2022-11-30T02:25:12.017Z,99.03
2022-11-30T02:27:54.054Z,98.39
2022-11-30T02:30:25.191Z,98.28
2022-11-30T02:32:57.363Z,98.41
2022-11-30T02:35:30.275Z,98.57
2022-11-30T02:37:59.656Z,97.80
2022-11-30T02:40:27.588Z,97.74
2022-11-30T02:42:59.116Z,97.63
2022-11-30T02:45:34.701Z,98.55
2022-11-30T02:48:08.995Z,97.84
2022-11-30T02:50:41.617Z,98.15
2022-11-30T02:53:10.791Z,98.27
2022-11-30T02:55:38.596Z,97.67
2022-11-30T02:58:06.627Z,98.06
2022-11-30T03:00:35.830Z,98.81
2022-11-30T03:03:03.829Z,97.94
2022-11-30T03:05:31.723Z,97.46
2022-11-30T03:07:59.647Z,98.55
2022-11-30T03:10:27.630Z,97.84
2022-11-30T03:12:58.627Z,98.14
2022-11-30T03:15:27.535Z,97.96
2022-11-30T03:17:56.866Z,98.48
2022-11-30T03:20:24.661Z,98.99
2022-11-30T03:22:52.499Z,98.66
2022-11-30T03:25:20.327Z,98.31
2022-11-30T03:27:48.155Z,97.79
2022-11-30T03:30:16.240Z,98.35
2022-11-30T03:32:44.058Z,98.04
2022-11-30T03:35:13.380Z,98.75
2022-11-30T03:37:41.247Z,98.70
2022-11-30T03:40:10.163Z,98.60
2022-11-30T03:42:38.018Z,98.82
2022-11-30T03:45:06.785Z,98.37
2022-11-30T03:47:34.571Z,98.58
2022-11-30T03:50:02.478Z,99.02
2022-11-30T03:52:31.680Z,98.14
2022-11-30T03:54:59.687Z,98.03
2022-11-30T03:57:27.536Z,97.59
2022-11-30T03:59:55.359Z,97.84
2022-11-30T04:02:23.187Z,99.35
2022-11-30T04:04:51.024Z,99.21
2022-11-30T04:07:19.007Z,98.22
2022-11-30T04:09:48.229Z,97.85
2022-11-30T04:12:16.654Z,99.08
2022-11-30T04:14:44.660Z,98.19
2022-11-30T04:17:12.719Z,98.05
2022-11-30T04:19:40.605Z,98.63
2022-11-30T04:22:08.386Z,98.49
2022-11-30T04:24:36.271Z,98.12
2022-11-30T04:27:05.407Z,98.44
2022-11-30T04:29:33.239Z,98.84
2022-11-30T04:32:01.087Z,98.29
2022-11-30T04:34:29.495Z,99.35
2022-11-30T04:37:00.269Z,99.54
2022-11-30T04:39:28.746Z,99.06
2022-11-30T04:41:56.604Z,99.39
2022-11-30T04:44:25.849Z,98.27
2022-11-30T04:46:53.747Z,98.59
2022-11-30T04:49:21.643Z,98.17
2022-11-30T04:51:49.455Z,98.21
2022-11-30T04:54:17.255Z,97.82
2022-11-30T04:56:45.085Z,98.82
2022-11-30T04:59:12.886Z,99.42
2022-11-30T05:01:42.183Z,99.21
2022-11-30T05:04:10.404Z,99.22
2022-11-30T05:06:38.252Z,98.18
2022-11-30T05:09:06.122Z,98.24
2022-11-30T05:11:33.876Z,98.36
2022-11-30T05:14:01.790Z,98.07
2022-11-30T05:16:30.040Z,98.67
2022-11-30T05:18:59.254Z,99.16
2022-11-30T05:21:27.077Z,98.29
2022-11-30T05:23:55.032Z,99.16
2022-11-30T05:26:22.962Z,98.85
2022-11-30T05:28:51.008Z,99.49
2022-11-30T05:31:18.958Z,99.28
2022-11-30T05:33:51.715Z,98.64
2022-11-30T05:36:21.629Z,99.25
2022-11-30T05:38:50.547Z,98.79
2022-11-30T05:41:18.495Z,99.15
2022-11-30T05:43:46.376Z,98.63
2022-11-30T05:46:14.440Z,99.14
2022-11-30T05:48:43.468Z,99.14
2022-11-30T05:51:13.371Z,98.32
2022-11-30T05:53:43.142Z,99.46
2022-11-30T05:56:13.121Z,98.94
2022-11-30T05:58:41.523Z,99.13
2022-11-30T06:01:10.091Z,98.59
2022-11-30T06:03:37.982Z,98.22
2022-11-30T06:06:06.119Z,98.86
2022-11-30T06:08:33.896Z,98.51
2022-11-30T06:11:03.628Z,99.33
2022-11-30T06:13:32.552Z,98.75
2022-11-30T06:16:03.771Z,99.06
2022-11-30T06:18:31.805Z,98.53
2022-11-30T06:21:02.647Z,99.10
2022-11-30T06:23:30.641Z,99.09
2022-11-30T06:25:58.559Z,98.33
2022-11-30T06:28:27.728Z,98.84
2022-11-30T06:30:59.562Z,99.07
2022-11-30T06:33:27.448Z,98.30
2022-11-30T06:35:55.461Z,97.58
2022-11-30T06:38:23.849Z,98.24
2022-11-30T06:40:51.648Z,98.59
2022-11-30T06:43:19.849Z,99.09
2022-11-30T06:45:49.152Z,99.14
2022-11-30T06:48:17.157Z,99.54
2022-11-30T06:50:49.841Z,98.60
2022-11-30T06:53:18.109Z,98.81
2022-11-30T06:55:45.919Z,99.44
2022-11-30T06:58:13.763Z,99.11
2022-11-30T07:00:42.765Z,99.34
2022-11-30T07:03:12.996Z,99.14
2022-11-30T07:05:43.910Z,98.40
2022-11-30T07:08:12.281Z,98.19
2022-11-30T07:10:41.679Z,98.14
2022-11-30T07:13:12.262Z,98.81
2022-11-30T07:15:40.343Z,99.02
2022-11-30T07:18:08.266Z,97.50
2022-11-30T07:20:38.219Z,98.43
2022-11-30T07:23:20.157Z,97.87
2022-11-30T07:26:05.813Z,98.11
2022-11-30T07:28:34.533Z,98.24
2022-11-30T07:31:02.346Z,97.92
2022-11-30T07:33:31.776Z,96.71
2022-11-30T07:36:00.995Z,97.25
2022-11-30T07:38:30.118Z,97.91
2022-11-30T07:40:58.766Z,97.47
2022-11-30T07:43:26.616Z,96.53
2022-11-30T07:45:54.901Z,96.43
2022-11-30T07:48:23.574Z,95.85
2022-11-30T07:50:51.777Z,95.99
2022-11-30T07:53:21.522Z,95.99
2022-11-30T07:55:55.495Z,96.78
2022-11-30T07:58:24.687Z,96.46
2022-11-30T08:00:52.632Z,96.94
2022-11-30T08:03:20.551Z,95.78
2022-11-30T08:05:48.366Z,95.21
2022-11-30T08:08:16.245Z,96.14
2022-11-30T08:10:45.667Z,95.69
2022-11-30T08:13:13.479Z,96.06
2022-11-30T08:15:41.385Z,95.04
2022-11-30T08:18:09.308Z,95.23
2022-11-30T08:20:37.127Z,94.60
2022-11-30T08:23:05.014Z,94.50
2022-11-30T08:25:32.799Z,93.60
2022-11-30T08:28:02.012Z,94.84
2022-11-30T08:30:32.716Z,94.31
2022-11-30T08:33:00.907Z,93.83
2022-11-30T08:35:28.793Z,93.74
2022-11-30T08:37:56.600Z,94.01
2022-11-30T08:40:24.586Z,93.45
2022-11-30T08:42:52.383Z,94.46
2022-11-30T08:45:21.764Z,93.66
2022-11-30T08:47:49.631Z,94.26
2022-11-30T08:50:17.528Z,93.49
2022-11-30T08:52:45.759Z,94.09
2022-11-30T08:55:13.634Z,93.45
2022-11-30T08:57:41.520Z,92.70
2022-11-30T09:00:10.585Z,92.88
2022-11-30T09:02:39.818Z,92.66
2022-11-30T09:05:08.340Z,92.31
2022-11-30T09:07:37.009Z,93.05
2022-11-30T09:10:05.361Z,92.42
2022-11-30T09:12:36.248Z,92.71
2022-11-30T09:15:04.208Z,92.59
2022-11-30T09:17:32.109Z,93.03
2022-11-30T09:20:01.929Z,92.42
2022-11-30T09:22:29.880Z,92.93
2022-11-30T09:24:57.660Z,93.21
2022-11-30T09:27:30.307Z,93.07
2022-11-30T09:29:58.228Z,92.18
2022-11-30T09:32:26.329Z,91.87
2022-11-30T09:34:54.374Z,92.69
2022-11-30T09:37:23.812Z,92.72
2022-11-30T09:39:52.723Z,91.18
2022-11-30T09:42:34.080Z,90.92
2022-11-30T09:45:07.731Z,92.26
2022-11-30T09:48:10.212Z,92.08
2022-11-30T09:50:42.662Z,92.32
2022-11-30T09:53:23.283Z,91.40
2022-11-30T09:55:57.110Z,91.40
2022-11-30T09:58:35.751Z,92.69
2022-11-30T10:01:07.336Z,91.94
2022-11-30T10:03:35.650Z,91.37
2022-11-30T10:06:09.469Z,90.77
2022-11-30T10:08:54.472Z,91.64
2022-11-30T10:11:44.936Z,90.67
2022-11-30T10:14:38.519Z,92.07
2022-11-30T10:17:19.687Z,91.40
2022-11-30T10:20:02.741Z,90.36
2022-11-30T10:22:42.471Z,90.25
2022-11-30T10:25:20.412Z,90.10
2022-11-30T10:27:52.491Z,90.12
2022-11-30T10:30:23.394Z,90.80
2022-11-30T10:32:55.321Z,90.38
2022-11-30T10:35:34.875Z,90.19
2022-11-30T10:38:10.758Z,90.54
2022-11-30T10:40:45.321Z,90.61
2022-11-30T10:43:20.060Z,88.61
2022-11-30T10:45:50.165Z,88.32
2022-11-30T10:48:25.236Z,88.20
2022-11-30T10:50:54.188Z,88.57
2022-11-30T10:53:22.392Z,89.27
2022-11-30T10:56:00.185Z,89.16
2022-11-30T10:58:31.736Z,88.70
2022-11-30T11:01:04.193Z,89.58
2022-11-30T11:03:32.635Z,89.08
2022-11-30T11:06:08.082Z,89.63
2022-11-30T11:08:36.531Z,89.81
2022-11-30T11:11:25.992Z,89.65
2022-11-30T11:13:53.907Z,89.74
2022-11-30T11:16:21.886Z,90.39
2022-11-30T11:18:54.701Z,89.63
2022-11-30T11:21:24.806Z,90.77
2022-11-30T11:23:54.972Z,90.01
2022-11-30T11:26:25.825Z,90.36
2022-11-30T11:28:56.545Z,89.96
2022-11-30T11:31:36.668Z,90.37
2022-11-30T11:34:08.899Z,90.02
2022-11-30T11:36:37.756Z,89.60
2022-11-30T11:39:26.556Z,89.51
2022-11-30T11:41:55.996Z,88.89
2022-11-30T11:44:27.993Z,88.63
2022-11-30T11:46:58.589Z,88.67
2022-11-30T11:49:29.710Z,89.25
2022-11-30T11:52:02.260Z,89.27
2022-11-30T11:54:34.508Z,90.28
2022-11-30T11:57:04.745Z,90.13
2022-11-30T11:59:41.908Z,89.91
2022-11-30T12:02:23.730Z,89.83
2022-11-30T12:04:53.947Z,89.04
2022-11-30T12:07:28.524Z,89.53
2022-11-30T12:10:28.207Z,89.79
2022-11-30T12:12:57.269Z,88.66
2022-11-30T12:15:32.374Z,89.11
2022-11-30T12:18:15.002Z,89.14
2022-11-30T12:20:55.294Z,88.73
2022-11-30T12:23:39.494Z,88.43
2022-11-30T12:26:17.344Z,88.21
2022-11-30T12:29:02.427Z,88.57
2022-11-30T12:31:41.200Z,88.72
2022-11-30T12:34:18.361Z,88.97
2022-11-30T12:36:59.606Z,89.02
2022-11-30T12:39:37.402Z,87.99
2022-11-30T12:42:10.745Z,87.74
2022-11-30T12:44:50.475Z,88.36
2022-11-30T12:47:40.841Z,87.66
2022-11-30T12:50:25.061Z,87.54
2022-11-30T12:53:01.848Z,88.11
2022-11-30T12:55:39.132Z,87.35
2022-11-30T12:58:17.659Z,86.57
2022-11-30T13:01:07.383Z,86.85
2022-11-30T13:03:50.260Z,87.00
2022-11-30T13:06:22.888Z,87.08
2022-11-30T13:08:58.222Z,87.87
2022-11-30T13:11:31.940Z,88.03
2022-11-30T13:14:01.140Z,88.30
2022-11-30T13:16:32.652Z,87.26
2022-11-30T13:19:11.616Z,86.86
2022-11-30T13:21:45.969Z,87.90
2022-11-30T13:24:22.559Z,88.05
2022-11-30T13:26:56.365Z,88.33
2022-11-30T13:29:45.518Z,89.04
2022-11-30T13:32:49.061Z,89.07
2022-11-30T13:35:45.297Z,89.31
2022-11-30T13:41:09.592Z,89.70
2022-11-30T13:43:41.846Z,89.23
2022-11-30T13:46:16.604Z,88.97
2022-11-30T13:48:47.041Z,88.76
2022-11-30T13:51:34.461Z,89.12
2022-11-30T13:54:37.636Z,88.73
2022-11-30T13:57:16.392Z,89.47
2022-11-30T13:59:49.819Z,89.16
2022-11-30T14:02:54.018Z,89.81
2022-11-30T14:05:26.758Z,90.18
2022-11-30T14:08:34.224Z,89.63
2022-11-30T14:11:37.270Z,89.84
2022-11-30T14:14:45.739Z,90.01
2022-11-30T14:17:20.215Z,89.86
2022-11-30T14:19:52.068Z,90.12
2022-11-30T14:22:21.921Z,89.62
2022-11-30T14:24:50.930Z,90.08
2022-11-30T14:27:24.042Z,91.31
2022-11-30T14:29:55.346Z,90.29
2022-11-30T14:32:38.981Z,91.04
2022-11-30T14:35:11.649Z,91.31
2022-11-30T14:37:46.559Z,90.70
2022-11-30T14:40:22.587Z,91.19
2022-11-30T14:42:52.937Z,91.40
2022-11-30T14:45:23.221Z,90.95
2022-11-30T14:47:53.905Z,91.44
2022-11-30T14:50:25.593Z,91.24
2022-11-30T14:53:05.004Z,91.24
2022-11-30T14:55:38.298Z,91.55
2022-11-30T14:58:18.545Z,91.54
2022-11-30T15:00:46.944Z,91.17
2022-11-30T15:03:26.048Z,91.99
2022-11-30T15:05:57.172Z,93.04
2022-11-30T15:08:31.131Z,92.45
2022-11-30T15:11:06.160Z,93.04
2022-11-30T15:13:34.799Z,92.50
2022-11-30T15:16:02.759Z,93.09
2022-11-30T15:18:30.706Z,92.82
2022-11-30T15:21:02.789Z,93.41
2022-11-30T15:23:32.111Z,93.18
2022-11-30T15:26:05.619Z,93.76
2022-11-30T15:28:39.056Z,93.22
2022-11-30T15:31:14.826Z,93.73
2022-11-30T15:33:45.637Z,93.62
2022-11-30T15:36:31.356Z,93.57
2022-11-30T15:39:06.749Z,93.59
2022-11-30T15:41:35.507Z,93.63
2022-11-30T15:44:03.596Z,92.97
2022-11-30T15:46:38.766Z,94.12
2022-11-30T15:49:17.552Z,93.50
2022-11-30T15:51:47.359Z,94.23
2022-11-30T15:54:17.083Z,94.34
2022-11-30T15:56:57.056Z,94.29
2022-11-30T15:59:27.295Z,94.17
2022-11-30T16:02:09.593Z,94.03
2022-11-30T16:05:12.373Z,93.48
2022-11-30T16:07:50.936Z,93.53
2022-11-30T16:10:23.625Z,93.34
2022-11-30T16:12:53.242Z,93.92
2022-11-30T16:15:23.468Z,93.05
2022-11-30T16:17:52.575Z,93.39
2022-11-30T16:20:20.965Z,92.80
2022-11-30T16:22:50.011Z,93.08
2022-11-30T16:25:21.848Z,92.87
2022-11-30T16:27:50.227Z,91.91
2022-11-30T16:30:20.059Z,93.36
2022-11-30T16:32:48.310Z,93.00
2022-11-30T16:35:22.355Z,92.18
2022-11-30T16:37:50.607Z,91.27
2022-11-30T16:40:18.547Z,92.11
2022-11-30T16:42:50.591Z,91.48
2022-11-30T16:45:21.295Z,92.11
2022-11-30T16:47:49.261Z,91.27
2022-11-30T16:50:17.696Z,91.05
2022-11-30T16:52:45.977Z,89.90
2022-11-30T16:55:15.342Z,90.17
2022-11-30T16:57:43.295Z,89.85
2022-11-30T17:00:15.755Z,89.87
2022-11-30T17:02:49.880Z,90.33
2022-11-30T17:05:17.962Z,90.99
2022-11-30T17:07:46.027Z,90.52
2022-11-30T17:10:14.290Z,90.42
2022-11-30T17:12:42.300Z,89.90
2022-11-30T17:15:17.334Z,90.32
2022-11-30T17:17:45.360Z,90.23
2022-11-30T17:20:15.012Z,90.82
2022-11-30T17:22:44.063Z,89.60
2022-11-30T17:25:16.844Z,89.74
2022-11-30T17:27:45.381Z,88.41
2022-11-30T17:30:19.792Z,89.38
2022-11-30T17:32:47.967Z,88.67
2022-11-30T17:35:16.288Z,88.86
2022-11-30T17:37:44.512Z,89.65
2022-11-30T17:40:14.798Z,89.91
2022-11-30T17:42:42.907Z,89.73
2022-11-30T17:45:11.756Z,88.31
2022-11-30T17:47:41.071Z,89.10
2022-11-30T17:50:10.299Z,89.51
2022-11-30T17:52:38.206Z,89.98
2022-11-30T17:55:06.688Z,89.46
2022-11-30T17:57:34.702Z,89.99
2022-11-30T18:00:02.611Z,89.59
2022-11-30T18:02:31.732Z,90.01
2022-11-30T18:05:01.125Z,89.43
2022-11-30T18:07:29.099Z,89.56
2022-11-30T18:09:57.949Z,89.45
2022-11-30T18:12:25.840Z,89.14
2022-11-30T18:14:55.075Z,89.33
2022-11-30T18:17:23.026Z,89.09
2022-11-30T18:19:50.913Z,88.85
2022-11-30T18:22:20.282Z,90.01
2022-11-30T18:24:48.940Z,89.31
2022-11-30T18:27:17.434Z,89.18
2022-11-30T18:29:45.373Z,89.46
2022-11-30T18:32:13.599Z,88.91
2022-11-30T18:34:41.486Z,89.38
2022-11-30T18:37:11.726Z,89.08
2022-11-30T18:39:41.134Z,90.42
2022-11-30T18:42:09.170Z,89.96
2022-11-30T18:44:37.060Z,89.91
2022-11-30T18:47:05.170Z,89.82
2022-11-30T18:49:33.028Z,89.20
2022-11-30T18:52:01.000Z,89.21
2022-11-30T18:54:29.593Z,89.38
2022-11-30T18:56:59.068Z,87.98
2022-11-30T18:59:27.076Z,88.38
2022-11-30T19:01:55.493Z,88.41
2022-11-30T19:04:26.072Z,88.69
2022-11-30T19:06:54.213Z,88.23
2022-11-30T19:09:23.968Z,87.99
2022-11-30T19:11:51.871Z,87.97
2022-11-30T19:14:21.195Z,87.82
2022-11-30T19:16:49.109Z,87.72
2022-11-30T19:19:17.017Z,88.54
2022-11-30T19:21:47.810Z,87.91
2022-11-30T19:24:16.447Z,87.55
2022-11-30T19:26:44.767Z,87.04
2022-11-30T19:29:13.409Z,87.33
2022-11-30T19:31:42.759Z,88.13
2022-11-30T19:34:12.957Z,87.24
2022-11-30T19:36:41.601Z,87.91
2022-11-30T19:39:11.384Z,88.14
2022-11-30T19:41:39.251Z,87.00
2022-11-30T19:44:07.162Z,87.55
2022-11-30T19:46:35.142Z,86.31
2022-11-30T19:49:04.707Z,86.00
2022-11-30T19:51:33.082Z,85.53
2022-11-30T19:54:01.324Z,85.44
2022-11-30T19:56:31.283Z,85.47
2022-11-30T19:59:05.242Z,85.61
2022-11-30T20:01:35.189Z,85.70
2022-11-30T20:04:07.429Z,86.63
2022-11-30T20:06:36.932Z,86.13
2022-11-30T20:09:06.041Z,85.49
2022-11-30T20:11:34.132Z,85.38
2022-11-30T20:14:02.686Z,85.42
2022-11-30T20:16:31.922Z,85.00
2022-11-30T20:19:01.811Z,85.44
2022-11-30T20:21:33.230Z,85.16
2022-11-30T20:24:03.071Z,85.47
2022-11-30T20:26:32.670Z,83.80
2022-11-30T20:29:02.874Z,84.42
2022-11-30T20:31:32.131Z,84.45
2022-11-30T20:34:00.364Z,85.01
2022-11-30T20:36:30.214Z,85.38
2022-11-30T20:38:59.278Z,85.68
2022-11-30T20:41:28.262Z,86.08
2022-11-30T20:43:56.671Z,85.71
2022-11-30T20:46:26.392Z,85.40
2022-11-30T20:48:55.837Z,85.79
2022-11-30T20:51:31.175Z,85.71
2022-11-30T20:54:03.247Z,86.71
2022-11-30T20:56:31.364Z,86.96
2022-11-30T20:59:03.190Z,86.74
2022-11-30T21:01:31.925Z,87.07
2022-11-30T21:04:01.085Z,87.09
2022-11-30T21:06:29.706Z,87.31
2022-11-30T21:08:57.746Z,86.71
2022-11-30T21:11:28.157Z,87.36
2022-11-30T21:13:57.357Z,85.74
2022-11-30T21:16:28.649Z,85.89
2022-11-30T21:18:58.337Z,84.87
2022-11-30T21:21:28.439Z,85.22
2022-11-30T21:23:58.141Z,85.78
2022-11-30T21:26:29.631Z,85.22
2022-11-30T21:29:02.665Z,85.96
2022-11-30T21:31:31.724Z,86.93
2022-11-30T21:34:00.094Z,86.63
2022-11-30T21:36:28.489Z,86.97
2022-11-30T21:39:04.561Z,86.91
2022-11-30T21:41:34.887Z,85.35
2022-11-30T21:44:02.913Z,83.96
2022-11-30T21:46:31.246Z,85.46
2022-11-30T21:48:59.369Z,84.93
2022-11-30T21:51:29.328Z,85.39
2022-11-30T21:53:59.132Z,85.44
2022-11-30T21:56:28.908Z,84.86
2022-11-30T21:58:58.587Z,85.26
2022-11-30T22:01:29.340Z,85.31
2022-11-30T22:03:59.113Z,85.38
2022-11-30T22:06:28.873Z,85.99
2022-11-30T22:08:57.565Z,85.47
2022-11-30T22:11:26.069Z,86.49
2022-11-30T22:13:55.153Z,85.93
2022-11-30T22:16:32.416Z,85.45
2022-11-30T22:19:03.870Z,86.43
2022-11-30T22:21:32.153Z,86.33
2022-11-30T22:24:02.263Z,86.47
2022-11-30T22:26:31.686Z,86.24
2022-11-30T22:29:01.168Z,86.52
2022-11-30T22:31:32.876Z,86.91
2022-11-30T22:34:01.080Z,87.11
2022-11-30T22:36:30.513Z,87.31
2022-11-30T22:39:00.626Z,87.04
2022-11-30T22:41:29.530Z,87.56
2022-11-30T22:43:58.705Z,87.29
2022-11-30T22:46:28.524Z,86.72
2022-11-30T22:49:01.626Z,86.79
2022-11-30T22:51:31.353Z,87.08
2022-11-30T22:54:00.642Z,87.08
2022-11-30T22:56:30.640Z,86.83
2022-11-30T22:59:00.828Z,87.31
2022-11-30T23:01:30.463Z,87.50
2022-11-30T23:04:03.993Z,87.38
2022-11-30T23:06:32.647Z,87.37
2022-11-30T23:09:00.878Z,88.12
2022-11-30T23:11:30.560Z,87.64
2022-11-30T23:13:58.531Z,87.77
2022-11-30T23:16:26.798Z,87.28
2022-11-30T23:18:57.417Z,87.37
2022-11-30T23:21:30.140Z,87.37
2022-11-30T23:24:00.858Z,87.06
2022-11-30T23:26:30.181Z,86.42
2022-11-30T23:29:01.462Z,86.79
2022-11-30T23:31:34.402Z,86.68
2022-11-30T23:34:06.244Z,86.59
2022-11-30T23:36:36.078Z,87.38
2022-11-30T23:39:07.368Z,86.94
2022-11-30T23:41:35.765Z,87.29
2022-11-30T23:44:03.945Z,87.42
2022-11-30T23:46:32.040Z,87.50
2022-11-30T23:49:00.140Z,87.64
2022-11-30T23:51:28.136Z,87.59
2022-11-30T23:53:57.715Z,87.50
2022-11-30T23:56:25.962Z,87.82
2022-11-30T23:58:53.936Z,87.70
